Time;durP1;ratioP1;P1;durP2;ratioP2;P2;SDS_P1;SDS_P2;PMS_P1;PMS_P2;Temp;Humidity;BMP_temperature;BMP_pressure;BME280_temperature;BME280_humidity;BME280_pressure;Samples;Min_cycle;Max_cycle;Signal;HPM_P1;HPM_P2
2022/03/03 00:01:28;;;;;;;54.28;21.73;;;;;;;7.25;32.02;101592.66;5073535;28;20433;-70
2022/03/03 00:03:55;;;;;;;45.40;21.52;;;;;;;7.26;32.40;101595.25;5062846;28;20401;-69
2022/03/03 00:06:21;;;;;;;42.70;19.70;;;;;;;7.14;32.34;101597.00;5073422;28;20094;-69
2022/03/03 00:08:48;;;;;;;46.17;20.40;;;;;;;7.26;32.10;101594.41;5073474;28;20485;-69
2022/03/03 00:11:14;;;;;;;45.30;20.08;;;;;;;7.25;32.09;101582.00;5073422;28;20045;-69
2022/03/03 00:13:40;;;;;;;46.42;21.08;;;;;;;7.30;31.92;101577.16;5073982;28;20099;-69
2022/03/03 00:16:08;;;;;;;47.03;20.15;;;;;;;7.30;31.75;101577.16;5073548;28;20104;-70
2022/03/03 00:18:34;;;;;;;42.40;19.77;;;;;;;7.20;31.95;101571.69;5073144;28;20052;-69
2022/03/03 00:21:01;;;;;;;42.95;20.30;;;;;;;7.26;31.62;101573.03;5072558;28;20465;-69
2022/03/03 00:23:27;;;;;;;41.50;19.98;;;;;;;7.27;32.03;101564.91;5073306;28;20040;-70
2022/03/03 00:25:53;;;;;;;41.92;20.02;;;;;;;7.18;31.86;101571.78;5073675;28;20128;-70
2022/03/03 00:28:20;;;;;;;40.60;20.13;;;;;;;7.21;32.26;101573.38;5073307;28;20154;-70
2022/03/03 00:30:46;;;;;;;47.33;21.20;;;;;;;7.13;32.39;101573.13;5073883;28;20519;-70
2022/03/03 00:33:13;;;;;;;45.78;20.73;;;;;;;7.13;32.40;101573.97;5073741;28;20048;-70
2022/03/03 00:35:39;;;;;;;46.58;20.52;;;;;;;7.19;32.44;101573.50;5073683;28;20369;-71
2022/03/03 00:38:06;;;;;;;48.35;21.08;;;;;;;7.12;32.74;101566.94;5073297;28;20088;-71
2022/03/03 00:40:32;;;;;;;44.65;19.88;;;;;;;7.03;32.72;101564.13;5054993;28;20512;-70
2022/03/03 00:42:59;;;;;;;39.20;19.23;;;;;;;7.13;32.42;101570.44;5072452;28;20512;-70
2022/03/03 00:45:25;;;;;;;48.08;20.17;;;;;;;7.12;32.49;101566.94;5072733;28;20123;-70
2022/03/03 00:47:52;;;;;;;43.83;20.50;;;;;;;7.12;32.25;101556.25;5072941;28;20132;-69
2022/03/03 00:50:18;;;;;;;49.67;20.42;;;;;;;7.00;32.61;101554.50;5070772;28;20079;-68
2022/03/03 00:52:45;;;;;;;42.65;18.35;;;;;;;6.99;32.77;101559.97;5071921;28;20438;-68
2022/03/03 00:55:12;;;;;;;40.15;19.58;;;;;;;7.09;32.87;101556.50;5072464;28;20060;-68
2022/03/03 00:57:38;;;;;;;46.30;20.95;;;;;;;7.11;32.81;101562.53;5072979;28;20131;-69
2022/03/03 01:00:06;;;;;;;42.03;21.02;;;;;;;7.10;32.74;101568.00;5072297;28;20127;-70
2022/03/03 01:02:33;;;;;;;44.20;20.02;;;;;;;7.13;32.62;101563.28;5072205;28;20087;-69
2022/03/03 01:05:00;;;;;;;44.85;19.70;;;;;;;7.12;32.97;101566.09;5071782;28;20044;-69
2022/03/03 01:07:27;;;;;;;43.63;20.33;;;;;;;7.06;32.75;101575.41;5071332;28;20106;-70
2022/03/03 01:09:53;;;;;;;45.25;20.88;;;;;;;7.07;33.09;101571.75;5072384;28;20079;-69
2022/03/03 01:12:20;;;;;;;42.72;20.33;;;;;;;7.14;32.98;101564.13;5071400;28;20120;-69
2022/03/03 01:14:47;;;;;;;43.58;20.52;;;;;;;7.09;32.90;101563.66;5071429;28;20134;-69
2022/03/03 01:17:13;;;;;;;44.78;20.55;;;;;;;7.11;32.88;101559.88;5066082;28;20040;-69
2022/03/03 01:19:41;;;;;;;45.13;20.30;;;;;;;7.14;32.66;101559.66;5072237;28;20207;-68
2022/03/03 01:22:08;;;;;;;38.85;19.27;;;;;;;7.15;32.71;101552.50;5071446;28;20132;-69
2022/03/03 01:24:34;;;;;;;41.10;19.48;;;;;;;7.12;32.68;101550.94;5071650;28;20128;-70
2022/03/03 01:27:02;;;;;;;39.58;19.45;;;;;;;7.09;33.03;101544.97;5061385;28;20143;-70
2022/03/03 01:29:29;;;;;;;50.42;20.88;;;;;;;7.13;32.84;101552.63;5055979;28;20057;-69
2022/03/03 01:31:55;;;;;;;44.88;20.30;;;;;;;6.97;33.09;101544.06;5051431;28;20541;-70
2022/03/03 01:34:22;;;;;;;46.95;21.20;;;;;;;7.06;32.93;101546.06;5051315;28;20223;-70
2022/03/03 01:36:48;;;;;;;48.88;20.88;;;;;;;6.95;33.09;101541.53;5051247;28;20120;-70
2022/03/03 01:39:15;;;;;;;44.03;19.70;;;;;;;6.94;33.07;101544.31;5051580;28;20131;-70
2022/03/03 01:41:41;;;;;;;47.83;20.30;;;;;;;7.05;33.17;101532.81;5051754;28;20123;-70
2022/03/03 01:44:08;;;;;;;45.08;20.60;;;;;;;7.06;32.94;101531.88;5051339;28;20045;-70
2022/03/03 01:46:35;;;;;;;46.10;20.67;;;;;;;7.02;33.07;101531.25;5051000;28;20053;-70
2022/03/03 01:49:02;;;;;;;50.10;21.05;;;;;;;6.93;33.26;101523.94;5051768;28;20067;-70
2022/03/03 01:51:28;;;;;;;50.60;21.60;;;;;;;6.88;33.44;101520.78;5050707;28;20124;-70
2022/03/03 01:53:55;;;;;;;46.97;21.98;;;;;;;7.00;33.29;101527.84;5051842;28;20067;-70
2022/03/03 01:56:21;;;;;;;50.92;21.73;;;;;;;6.98;33.37;101527.13;5051256;28;20045;-70
2022/03/03 01:58:48;;;;;;;49.58;20.77;;;;;;;7.16;32.91;101525.69;5051379;28;20107;-70
2022/03/03 02:01:16;;;;;;;42.60;20.88;;;;;;;7.04;33.35;101528.44;5051293;28;20123;-70
2022/03/03 02:03:42;;;;;;;49.42;20.88;;;;;;;7.13;33.33;101530.44;5051938;28;20136;-70
2022/03/03 02:09:56;;;;;;;48.13;20.02;;;;;;;7.08;33.64;101533.44;5050382;28;20091;-70
2022/03/03 02:12:22;;;;;;;50.50;20.60;;;;;;;7.06;33.52;101539.88;5050967;28;20135;-70
2022/03/03 02:14:49;;;;;;;41.95;20.08;;;;;;;7.08;33.62;101537.91;5050317;28;20115;-70
2022/03/03 02:17:16;;;;;;;43.78;19.42;;;;;;;7.10;33.34;101538.66;5050494;28;20085;-70
2022/03/03 02:19:43;;;;;;;49.90;19.15;;;;;;;6.94;33.42;101530.97;5050533;28;20545;-70
2022/03/03 02:22:10;;;;;;;38.40;18.17;;;;;;;6.85;33.45;101524.53;5050272;28;20041;-70
2022/03/03 02:24:38;;;;;;;38.20;19.50;;;;;;;6.91;33.12;101525.84;5039403;28;20505;-70
2022/03/03 02:27:05;;;;;;;44.30;19.30;;;;;;;6.90;32.93;101521.50;5050193;28;20049;-70
2022/03/03 02:29:33;;;;;;;42.67;19.92;;;;;;;6.82;33.21;101522.09;5050234;28;20140;-70
2022/03/03 02:32:00;;;;;;;43.00;21.08;;;;;;;6.84;32.81;101520.16;5049585;28;20404;-70
2022/03/03 02:34:27;;;;;;;51.90;22.23;;;;;;;6.76;33.18;101527.03;5049551;28;20152;-70
2022/03/03 02:36:53;;;;;;;52.63;22.90;;;;;;;6.65;33.13;101526.03;5041439;28;20041;-70
2022/03/03 02:39:20;;;;;;;43.28;20.15;;;;;;;6.74;32.90;101523.63;5039958;28;20049;-70
2022/03/03 02:41:46;;;;;;;52.10;23.67;;;;;;;6.89;32.59;101515.31;5050477;28;20057;-70
2022/03/03 02:44:14;;;;;;;48.47;22.27;;;;;;;6.90;32.54;101513.50;5049839;28;20124;-70
2022/03/03 02:46:41;;;;;;;46.92;22.27;;;;;;;6.73;32.85;101500.59;5050293;28;20083;-70
2022/03/03 02:49:09;;;;;;;54.28;23.10;;;;;;;6.87;32.71;101506.56;5049536;28;20041;-70
2022/03/03 02:51:36;;;;;;;47.42;23.25;;;;;;;6.87;32.61;101505.72;5050278;28;20511;-70
2022/03/03 02:54:03;;;;;;;49.17;24.17;;;;;;;6.86;32.50;101496.03;5049872;28;20079;-70
2022/03/03 02:56:29;;;;;;;46.78;22.35;;;;;;;6.78;32.38;101493.13;5046075;28;20071;-70
2022/03/03 02:58:56;;;;;;;47.38;23.27;;;;;;;6.99;32.09;101491.47;5050270;28;20114;-70
2022/03/03 03:01:22;;;;;;;51.95;22.08;;;;;;;6.87;32.49;101489.72;5051269;28;20069;-70
2022/03/03 03:03:49;;;;;;;50.10;22.67;;;;;;;6.86;32.46;101480.03;5049803;28;20378;-70
2022/03/03 03:06:16;;;;;;;48.42;23.45;;;;;;;6.78;32.68;101469.97;5050044;28;20135;-70
2022/03/03 03:08:42;;;;;;;48.15;22.10;;;;;;;6.68;32.84;101472.47;5049874;28;20049;-70
2022/03/03 03:11:09;;;;;;;50.78;22.85;;;;;;;6.78;32.62;101477.13;5050303;28;20458;-70
2022/03/03 03:13:35;;;;;;;47.83;22.77;;;;;;;6.78;32.54;101469.13;5050491;28;20079;-70
2022/03/03 03:16:02;;;;;;;53.53;24.13;;;;;;;6.65;32.58;101461.19;5050213;28;20124;-69
2022/03/03 03:18:29;;;;;;;51.92;24.30;;;;;;;6.86;32.24;101470.22;5050644;28;20048;-71
2022/03/03 03:20:55;;;;;;;53.45;23.95;;;;;;;6.71;32.35;101466.91;5043377;28;20071;-70
2022/03/03 03:23:23;;;;;;;51.58;24.02;;;;;;;6.74;32.54;101455.16;5050038;28;20068;-69
2022/03/03 03:25:50;;;;;;;50.17;22.77;;;;;;;6.60;32.54;101450.88;5049914;28;20428;-70
2022/03/03 03:28:18;;;;;;;52.03;22.60;;;;;;;6.51;32.68;101453.38;5050049;28;20125;-69
2022/03/03 03:30:45;;;;;;;48.63;22.58;;;;;;;6.56;32.82;101452.06;5049854;28;20053;-70
2022/03/03 03:33:12;;;;;;;50.83;23.58;;;;;;;6.51;32.92;101454.25;5049141;28;20135;-69
2022/03/03 03:35:39;;;;;;;48.42;22.17;;;;;;;6.53;32.98;101443.44;5048888;28;20088;-70
2022/03/03 03:38:06;;;;;;;50.42;22.27;;;;;;;6.56;32.91;101436.06;5050553;28;20067;-70
2022/03/03 03:40:32;;;;;;;48.50;22.38;;;;;;;6.44;33.21;101431.69;5049923;28;20481;-70
2022/03/03 03:42:59;;;;;;;46.08;22.48;;;;;;;6.42;33.52;101430.94;5053527;28;20083;-70
2022/03/03 03:45:25;;;;;;;50.28;22.27;;;;;;;6.32;33.76;101438.78;5054447;28;20124;-70
2022/03/03 03:47:52;;;;;;;47.15;22.30;;;;;;;6.47;33.29;101436.78;5054199;28;20064;-70
2022/03/03 03:50:18;;;;;;;58.88;24.13;;;;;;;6.29;33.76;101427.47;5052416;28;20481;-70
2022/03/03 03:52:45;;;;;;;45.03;21.80;;;;;;;6.29;33.84;101427.47;5053751;28;20131;-70
2022/03/03 03:55:12;;;;;;;45.47;21.85;;;;;;;5.90;34.57;101424.13;5053490;28;20131;-70
2022/03/03 03:57:39;;;;;;;45.08;22.17;;;;;;;5.51;35.23;101412.75;5053537;28;20136;-70
2022/03/03 04:00:09;;;;;;;40.38;21.58;;;;;;;6.09;34.20;101421.81;5053251;28;20464;-70
2022/03/03 04:02:36;;;;;;;44.17;21.40;;;;;;;6.11;33.97;101403.88;5043029;28;20052;-70
2022/03/03 04:05:03;;;;;;;43.97;22.38;;;;;;;5.97;34.55;101396.06;5052457;28;20113;-70
2022/03/03 04:07:30;;;;;;;41.97;21.35;;;;;;;5.97;34.44;101396.06;5050113;28;20052;-70
2022/03/03 04:09:56;;;;;;;52.00;21.88;;;;;;;5.89;34.34;101401.13;5053589;28;20048;-70
2022/03/03 04:12:23;;;;;;;44.97;22.52;;;;;;;5.83;34.58;101398.91;5052178;28;20127;-70
2022/03/03 04:14:49;;;;;;;40.97;21.30;;;;;;;5.88;34.34;101397.63;5053026;28;20060;-70
2022/03/03 04:17:15;;;;;;;44.05;21.25;;;;;;;5.94;34.22;101399.84;5052836;28;20129;-70
2022/03/03 04:19:42;;;;;;;49.72;22.60;;;;;;;5.87;34.25;101403.91;5052766;28;20132;-70
2022/03/03 04:22:08;;;;;;;42.75;22.98;;;;;;;5.80;34.09;101405.31;5052536;28;20552;-70
2022/03/03 04:24:35;;;;;;;43.30;21.90;;;;;;;5.79;34.30;101410.75;5035252;28;20053;-70
2022/03/03 04:27:01;;;;;;;50.13;23.15;;;;;;;5.56;34.67;101402.66;5052286;28;20090;-70
2022/03/03 04:29:28;;;;;;;43.67;21.52;;;;;;;5.68;34.55;101401.72;5053483;28;20458;-70
2022/03/03 04:31:56;;;;;;;46.78;22.63;;;;;;;5.64;34.36;101402.94;5052235;28;20141;-70
2022/03/03 04:34:23;;;;;;;44.67;21.48;;;;;;;5.68;34.08;101396.41;5045752;28;20132;-70
2022/03/03 04:36:50;;;;;;;49.00;22.55;;;;;;;5.30;35.05;101412.47;5052851;28;20507;-70
2022/03/03 04:39:17;;;;;;;49.58;22.33;;;;;;;5.42;34.88;101422.25;5052694;28;20049;-70
2022/03/03 04:41:43;;;;;;;51.17;21.50;;;;;;;5.36;35.03;101416.53;5047764;28;20048;-70
2022/03/03 04:44:09;;;;;;;45.05;21.15;;;;;;;5.45;35.06;101427.34;5052811;28;20068;-70
2022/03/03 04:46:36;;;;;;;46.80;22.10;;;;;;;5.53;34.90;101432.13;5053219;28;20049;-70
2022/03/03 04:49:03;;;;;;;42.50;21.83;;;;;;;5.60;34.72;101427.22;5051533;28;20049;-70
2022/03/03 04:51:30;;;;;;;50.67;23.58;;;;;;;5.40;35.12;101431.31;5052867;28;20075;-70
2022/03/03 04:53:57;;;;;;;42.38;21.35;;;;;;;5.34;35.30;101437.06;5052150;28;20068;-70
2022/03/03 04:56:24;;;;;;;44.38;22.08;;;;;;;5.62;34.71;101425.28;5053053;28;20099;-70
2022/03/03 04:58:50;;;;;;;48.70;22.67;;;;;;;5.52;34.80;101433.06;5051275;28;20515;-70
2022/03/03 05:01:16;;;;;;;48.85;22.75;;;;;;;5.44;34.90;101425.66;5052088;28;20088;-70
2022/03/03 05:03:43;;;;;;;43.10;22.40;;;;;;;5.47;35.03;101436.06;5051645;28;20052;-70
2022/03/03 05:06:10;;;;;;;47.97;23.13;;;;;;;5.15;35.87;101438.38;5034731;28;20533;-70
2022/03/03 05:08:36;;;;;;;49.83;21.95;;;;;;;5.15;35.54;101435.69;5051717;28;20041;-70
2022/03/03 05:11:03;;;;;;;50.10;23.23;;;;;;;4.41;36.27;101439.88;5051860;28;20124;-71
2022/03/03 05:13:29;;;;;;;43.78;22.35;;;;;;;4.52;36.79;101433.84;5052873;28;20049;-70
2022/03/03 05:15:56;;;;;;;44.38;22.13;;;;;;;4.56;36.91;101438.84;5035415;28;20119;-70
2022/03/03 05:18:22;;;;;;;43.75;21.95;;;;;;;4.26;37.08;101436.41;5051490;28;20045;-70
2022/03/03 05:20:49;;;;;;;46.15;22.15;;;;;;;4.82;35.99;101426.44;5050919;28;20556;-70
2022/03/03 05:23:22;;;;;;;44.13;21.95;;;;;;;5.10;35.60;101427.19;5051497;28;20405;-70
2022/03/03 05:25:48;;;;;;;45.13;22.73;;;;;;;5.07;35.48;101422.06;5051535;28;20464;-70
2022/03/03 05:28:15;;;;;;;51.17;23.25;;;;;;;5.05;35.27;101408.03;5051929;28;20064;-70
2022/03/03 05:30:42;;;;;;;46.33;22.55;;;;;;;5.12;35.15;101409.31;5051799;28;20124;-70
2022/03/03 05:33:08;;;;;;;51.83;23.52;;;;;;;5.17;35.21;101399.19;5051182;28;20049;-70
2022/03/03 05:35:35;;;;;;;42.85;22.17;;;;;;;5.10;35.42;101399.75;5052249;28;20045;-70
2022/03/03 05:38:02;;;;;;;43.00;21.50;;;;;;;5.04;35.27;101406.34;5051389;28;20048;-70
2022/03/03 05:40:28;;;;;;;44.88;21.33;;;;;;;5.12;35.51;101408.47;5051809;28;20080;-70
2022/03/03 05:42:55;;;;;;;43.03;22.88;;;;;;;5.16;35.42;101405.47;5054962;28;20072;-71
2022/03/03 05:45:22;;;;;;;45.28;22.20;;;;;;;4.98;35.73;101410.28;5071006;28;20052;-70
2022/03/03 05:47:49;;;;;;;43.90;22.05;;;;;;;5.36;35.00;101395.25;5070836;28;20055;-70
2022/03/03 05:50:16;;;;;;;42.47;22.33;;;;;;;5.38;35.05;101383.50;5071406;28;20484;-70
2022/03/03 05:52:42;;;;;;;46.42;23.40;;;;;;;5.39;35.19;101379.91;5070307;28;20131;-70
2022/03/03 05:55:09;;;;;;;46.00;22.25;;;;;;;5.52;35.01;101374.53;5070572;28;20049;-70
2022/03/03 05:57:38;;;;;;;51.85;23.08;;;;;;;5.47;35.08;101382.00;5050314;28;20139;-70
2022/03/03 06:00:14;;;;;;;54.70;24.55;;;;;;;5.34;35.41;101376.72;5070932;28;20127;-70
2022/03/03 06:03:01;;;;;;;57.55;23.95;;;;;;;5.47;35.08;101374.03;5045382;28;20064;-70
2022/03/03 06:05:28;;;;;;;46.47;21.80;;;;;;;5.38;35.65;101382.66;5070790;28;20052;-70
2022/03/03 06:08:02;;;;;;;48.42;24.67;;;;;;;5.48;35.27;101383.69;5070813;28;20139;-70
2022/03/03 06:10:32;;;;;;;55.35;23.55;;;;;;;5.51;35.37;101388.81;5070486;28;20075;-70
2022/03/03 06:13:19;;;;;;;44.80;24.02;;;;;;;5.45;35.36;101402.53;5053334;28;20072;-70
2022/03/03 06:15:48;;;;;;;45.42;23.90;;;;;;;5.26;35.99;101408.34;5070419;28;20087;-70
2022/03/03 06:18:14;;;;;;;48.33;23.95;;;;;;;5.34;35.73;101411.28;5070438;28;20127;-70
2022/03/03 06:20:43;;;;;;;58.17;23.80;;;;;;;5.31;35.91;101418.66;5064410;28;20054;-70
2022/03/03 06:23:10;;;;;;;50.03;24.30;;;;;;;5.09;36.38;101414.84;5070578;28;20044;-70
2022/03/03 06:25:37;;;;;;;52.45;25.60;;;;;;;5.48;35.82;101419.13;5071036;28;20048;-70
2022/03/03 06:28:03;;;;;;;51.00;24.52;;;;;;;5.37;35.99;101421.72;5071491;28;20072;-70
2022/03/03 06:30:32;;;;;;;52.03;25.23;;;;;;;4.65;37.59;101432.06;5070379;28;20037;-70
2022/03/03 06:32:59;;;;;;;49.30;25.90;;;;;;;4.39;38.54;101440.97;5070260;28;20504;-70
2022/03/03 06:35:25;;;;;;;50.53;26.02;;;;;;;4.37;38.67;101443.66;5070441;28;20108;-71
2022/03/03 06:37:51;;;;;;;52.88;25.00;;;;;;;4.40;38.94;101438.19;5061956;28;20132;-70
2022/03/03 06:40:18;;;;;;;53.90;25.55;;;;;;;4.52;38.46;101445.34;5069771;28;20050;-70
2022/03/03 06:42:45;;;;;;;52.00;26.30;;;;;;;3.91;39.64;101435.22;5069749;28;20460;-68
2022/03/03 06:45:12;;;;;;;61.42;27.50;;;;;;;3.94;40.00;101435.03;5069757;28;20147;-69
2022/03/03 06:47:38;;;;;;;63.20;28.00;;;;;;;4.12;39.66;101433.81;5068840;28;20067;-69
2022/03/03 06:50:05;;;;;;;59.42;27.67;;;;;;;4.39;39.40;101433.84;5065521;28;20110;-69
2022/03/03 06:52:34;;;;;;;59.40;29.52;;;;;;;3.96;40.50;101451.69;5065621;28;20058;-70
2022/03/03 06:55:01;;;;;;;54.13;27.25;;;;;;;3.84;40.91;101453.34;5071455;28;20378;-70
2022/03/03 06:57:29;;;;;;;57.72;29.65;;;;;;;3.52;41.68;101453.59;5070591;28;20075;-70
2022/03/03 07:00:00;;;;;;;60.25;29.48;;;;;;;3.33;41.84;101455.69;5071087;28;20106;-69
2022/03/03 07:02:27;;;;;;;60.10;29.30;;;;;;;3.57;41.90;101459.47;5129341;22;20048;-72
2022/03/03 07:04:54;;;;;;;59.47;29.35;;;;;;;3.55;41.81;101460.50;5074000;28;20550;-72
2022/03/03 07:07:21;;;;;;;65.47;31.00;;;;;;;3.03;43.03;101456.66;5051099;28;20061;-72
2022/03/03 07:09:48;;;;;;;60.75;30.65;;;;;;;2.92;43.38;101453.78;5060688;28;20074;-72
2022/03/03 07:12:17;;;;;;;61.88;30.10;;;;;;;2.55;44.17;101468.38;5091080;28;20075;-72
2022/03/03 07:14:44;;;;;;;62.17;31.23;;;;;;;3.45;41.90;101465.56;5092462;28;20086;-72
2022/03/03 07:17:31;;;;;;;71.43;32.05;;;;;;;3.69;42.09;101459.63;5093787;28;20054;-71
2022/03/03 07:20:00;;;;;;;67.93;29.63;;;;;;;3.90;41.12;101465.34;5075899;28;20170;-71
2022/03/03 07:22:35;;;;;;;59.35;31.92;;;;;;;3.59;41.85;101472.66;5069453;28;20044;-71
2022/03/03 07:25:09;;;;;;;68.05;31.67;;;;;;;3.95;41.45;101472.09;5073703;28;20076;-72
2022/03/03 07:27:41;;;;;;;68.57;32.47;;;;;;;4.07;41.31;101470.44;5073951;28;20135;-73
2022/03/03 07:30:14;;;;;;;64.18;31.88;;;;;;;4.25;40.97;101466.59;5074671;28;20396;-73
2022/03/03 07:32:47;;;;;;;66.95;32.03;;;;;;;5.24;39.10;101468.78;5074101;28;20135;-73
2022/03/03 07:35:15;;;;;;;63.60;31.30;;;;;;;5.43;38.05;101468.34;5053203;28;20079;-73
2022/03/03 07:37:49;;;;;;;64.55;32.00;;;;;;;5.14;39.01;101470.38;5074564;28;20087;-73
2022/03/03 07:40:16;;;;;;;65.82;31.92;;;;;;;5.53;38.20;101477.38;5038656;28;20101;-73
2022/03/03 07:42:45;;;;;;;68.13;32.25;;;;;;;5.75;37.88;101480.19;5073403;28;20044;-73
2022/03/03 07:45:11;;;;;;;89.65;36.13;;;;;;;6.23;36.85;101474.91;5076564;28;20177;-75
2022/03/03 07:47:39;;;;;;;65.25;33.50;;;;;;;6.05;37.38;101475.44;5074245;28;20521;-76
2022/03/03 07:50:07;;;;;;;70.13;35.47;;;;;;;6.41;36.87;101474.53;5074188;28;20385;-76
2022/03/03 07:52:34;;;;;;;70.82;35.65;;;;;;;6.99;35.79;101479.94;5074810;28;20052;-75
2022/03/03 07:55:01;;;;;;;64.18;37.08;;;;;;;7.30;35.22;101471.25;5073363;28;20127;-75
2022/03/03 07:57:34;;;;;;;74.63;38.80;;;;;;;7.58;35.13;101467.25;5071041;28;20049;-74
2022/03/03 08:00:05;;;;;;;79.30;40.65;;;;;;;8.30;33.74;101476.59;5073250;28;20049;-75
2022/03/03 08:02:34;;;;;;;76.68;39.72;;;;;;;8.40;33.80;101485.56;5071997;28;20053;-75
2022/03/03 08:05:05;;;;;;;77.50;40.58;;;;;;;7.01;35.29;101486.84;5064777;28;20048;-75
2022/03/03 08:07:40;;;;;;;61.97;31.67;;;;;;;7.00;35.89;101484.31;5071997;28;20049;-75
2022/03/03 08:10:09;;;;;;;80.30;41.50;;;;;;;6.52;36.63;101493.25;5072946;28;20052;-75
2022/03/03 08:12:37;;;;;;;82.68;44.80;;;;;;;5.55;38.47;101496.75;5073053;28;20553;-76
2022/03/03 08:15:04;;;;;;;106.82;51.33;;;;;;;4.87;40.59;101505.91;5072839;28;20076;-75
2022/03/03 08:17:33;;;;;;;103.18;51.70;;;;;;;4.26;41.58;101507.28;5073211;28;20115;-75
2022/03/03 08:20:05;;;;;;;116.35;56.00;;;;;;;3.55;43.54;101514.44;5072159;28;20047;-74
2022/03/03 08:22:33;;;;;;;116.25;52.50;;;;;;;3.78;43.48;101507.66;5073276;28;20052;-76
2022/03/03 08:25:00;;;;;;;119.82;55.65;;;;;;;3.39;44.02;101509.22;5072240;28;20098;-75
2022/03/03 08:27:27;;;;;;;118.95;52.60;;;;;;;2.97;45.17;101514.47;5073882;28;20128;-75
2022/03/03 08:29:56;;;;;;;123.75;53.47;;;;;;;2.61;46.57;101511.22;5076224;28;20052;-71
2022/03/03 08:32:33;;;;;;;127.55;53.33;;;;;;;2.88;46.18;101518.50;5070440;28;20507;-72
2022/03/03 08:35:11;;;;;;;113.22;52.67;;;;;;;2.77;46.11;101519.16;5072119;28;20140;-71
2022/03/03 08:37:43;;;;;;;122.20;53.70;;;;;;;2.79;46.12;101511.09;5071979;28;20045;-72
2022/03/03 08:40:17;;;;;;;122.70;54.50;;;;;;;3.23;45.56;101519.03;5066189;28;20044;-72
2022/03/03 08:42:48;;;;;;;128.55;56.90;;;;;;;4.04;43.77;101524.59;5071405;28;20131;-72
2022/03/03 08:45:19;;;;;;;128.95;57.88;;;;;;;4.07;43.11;101528.84;5072983;28;20396;-72
2022/03/03 08:47:55;;;;;;;122.60;55.53;;;;;;;4.34;42.40;101527.06;5072769;28;20127;-71
2022/03/03 08:50:29;;;;;;;128.50;54.90;;;;;;;4.34;42.64;101537.69;5071776;28;20468;-73
2022/03/03 08:52:57;;;;;;;111.00;51.20;;;;;;;4.66;41.99;101528.59;5072201;28;20045;-70
2022/03/03 08:55:25;;;;;;;108.00;53.05;;;;;;;5.11;40.78;101529.97;5072510;28;20131;-70
2022/03/03 08:57:52;;;;;;;96.97;43.92;;;;;;;4.08;42.99;101533.22;5071207;28;20048;-71
2022/03/03 09:00:19;;;;;;;92.28;38.40;;;;;;;3.45;44.18;101530.97;5071194;28;20040;-72
2022/03/03 09:02:47;;;;;;;83.07;38.03;;;;;;;4.05;43.79;101518.34;5072152;28;20465;-70
2022/03/03 09:05:15;;;;;;;88.63;39.70;;;;;;;3.57;44.24;101524.94;5071503;28;20094;-71
2022/03/03 09:07:41;;;;;;;81.50;39.20;;;;;;;3.25;45.41;101526.91;5072486;28;20044;-72
2022/03/03 09:10:09;;;;;;;86.40;38.55;;;;;;;2.79;45.91;101533.16;5071111;28;20182;-71
2022/03/03 09:12:35;;;;;;;86.55;39.00;;;;;;;3.42;44.95;101536.50;5052369;28;20044;-71
2022/03/03 09:15:02;;;;;;;93.53;42.78;;;;;;;3.64;44.25;101526.25;5071604;28;20071;-71
2022/03/03 09:17:32;;;;;;;106.15;43.53;;;;;;;3.83;43.58;101534.78;5071565;28;20051;-70
2022/03/03 09:20:02;;;;;;;89.10;37.25;;;;;;;2.60;46.22;101549.25;5070558;28;20484;-70
2022/03/03 09:22:29;;;;;;;79.88;36.35;;;;;;;2.60;46.50;101535.16;5070556;28;20392;-70
2022/03/03 09:24:55;;;;;;;79.55;36.47;;;;;;;3.03;45.45;101536.16;5070240;28;20068;-71
2022/03/03 09:27:22;;;;;;;84.90;37.88;;;;;;;3.70;44.51;101536.50;5070043;28;20064;-70
2022/03/03 09:29:50;;;;;;;81.15;35.58;;;;;;;4.01;43.53;101543.38;5062537;28;20485;-71
2022/03/03 09:32:17;;;;;;;78.38;33.55;;;;;;;2.31;46.40;101545.66;5071174;28;20119;-71
2022/03/03 09:34:47;;;;;;;83.97;35.80;;;;;;;3.49;45.26;101536.03;5069379;28;20059;-71
2022/03/03 09:37:14;;;;;;;79.75;34.42;;;;;;;3.28;44.74;101532.03;5071164;28;20076;-71
2022/03/03 09:39:42;;;;;;;72.70;32.92;;;;;;;2.48;47.60;101538.50;5071600;28;20048;-71
2022/03/03 09:42:08;;;;;;;81.60;32.88;;;;;;;2.36;47.26;101554.16;5071443;28;20448;-72
2022/03/03 09:44:35;;;;;;;67.85;32.63;;;;;;;3.45;45.85;101541.59;5070828;28;20068;-70
2022/03/03 09:47:02;;;;;;;72.22;33.40;;;;;;;3.78;44.73;101550.13;5071367;28;20128;-71
2022/03/03 09:49:29;;;;;;;70.65;33.78;;;;;;;3.63;45.17;101554.59;5073390;28;20044;-71
2022/03/03 09:51:55;;;;;;;73.78;31.38;;;;;;;3.45;44.52;101549.56;5066382;28;20460;-71
2022/03/03 09:54:22;;;;;;;60.50;29.60;;;;;;;3.08;45.63;101554.44;5069761;28;20071;-71
2022/03/03 09:56:49;;;;;;;73.05;30.38;;;;;;;3.18;45.79;101547.66;5070506;28;20045;-71
2022/03/03 09:59:15;;;;;;;65.07;29.85;;;;;;;3.38;45.53;101549.09;5071549;28;20493;-71
2022/03/03 10:01:45;;;;;;;67.22;28.55;;;;;;;3.55;45.32;101550.69;5070536;28;20076;-71
2022/03/03 10:04:22;;;;;;;63.72;29.98;;;;;;;3.28;45.76;101548.81;5069094;28;20048;-71
2022/03/03 10:06:49;;;;;;;58.90;27.40;;;;;;;3.26;45.56;101544.53;5070554;28;20093;-70
2022/03/03 10:09:16;;;;;;;64.57;29.48;;;;;;;3.92;44.81;101543.97;5070361;28;20113;-70
2022/03/03 10:11:48;;;;;;;60.88;29.63;;;;;;;4.44;43.46;101548.59;5070433;28;20048;-70
2022/03/03 10:14:36;;;;;;;57.22;27.23;;;;;;;4.14;44.20;101554.09;5069767;28;20098;-71
2022/03/03 10:17:05;;;;;;;54.58;27.25;;;;;;;4.41;43.50;101561.25;5070000;28;20045;-73
2022/03/03 10:19:56;;;;;;;54.75;28.60;;;;;;;4.64;43.05;101552.63;5070408;28;20044;-74
2022/03/03 10:22:36;;;;;;;58.25;27.75;;;;;;;4.21;43.79;101555.41;5070129;28;20147;-73
2022/03/03 10:25:03;;;;;;;55.33;26.85;;;;;;;4.09;44.04;101556.16;5070664;28;20041;-74
2022/03/03 10:27:33;;;;;;;55.63;25.52;;;;;;;3.81;44.23;101568.53;5066115;28;20125;-75
2022/03/03 10:30:01;;;;;;;53.72;24.75;;;;;;;3.15;46.63;101567.25;5071705;28;20041;-74
2022/03/03 10:32:28;;;;;;;48.55;23.70;;;;;;;3.71;45.29;101561.22;5069627;28;20055;-75
2022/03/03 10:35:01;;;;;;;51.65;24.92;;;;;;;4.26;43.84;101553.28;5050782;28;20064;-76
2022/03/03 10:37:28;;;;;;;52.72;25.30;;;;;;;4.49;43.11;101550.97;5028977;28;20049;-74
2022/03/03 10:39:56;;;;;;;50.00;22.88;;;;;;;3.53;45.58;101563.22;5027628;28;20077;-74
2022/03/03 10:42:28;;;;;;;57.38;20.73;;;;;;;3.81;45.54;101563.22;5031036;28;20049;-75
2022/03/03 10:45:11;;;;;;;40.70;18.02;;;;;;;2.82;48.34;101559.50;5029456;28;20542;-75
2022/03/03 10:47:43;;;;;;;44.63;17.85;;;;;;;3.69;46.67;101558.69;5034922;28;20076;-74
2022/03/03 10:50:10;;;;;;;44.17;18.67;;;;;;;3.17;47.82;101564.50;5033525;28;20045;-73
2022/03/03 10:52:40;;;;;;;41.97;18.60;;;;;;;2.84;48.57;101570.00;5034759;28;20045;-74
2022/03/03 10:55:15;;;;;;;38.80;17.23;;;;;;;3.81;46.29;101572.97;5032809;28;20080;-74
2022/03/03 10:57:56;;;;;;;44.13;18.88;;;;;;;4.09;46.47;101572.09;5016548;28;20525;-74
2022/03/03 11:00:25;;;;;;;41.95;17.67;;;;;;;4.17;45.61;101556.50;5034162;28;20061;-75
2022/03/03 11:02:55;;;;;;;47.13;18.98;;;;;;;4.10;46.01;101558.75;5034329;28;20045;-74
2022/03/03 11:05:23;;;;;;;43.00;17.42;;;;;;;4.21;45.15;101565.13;5033475;28;20042;-74
2022/03/03 11:07:51;;;;;;;45.17;19.70;;;;;;;3.93;45.98;101566.03;5034949;28;20069;-75
2022/03/03 11:10:20;;;;;;;39.60;17.10;;;;;;;3.74;46.45;101566.34;5057093;28;20489;-74
2022/03/03 11:12:47;;;;;;;41.47;17.85;;;;;;;4.05;45.72;101575.91;5075220;28;20125;-71
2022/03/03 11:15:18;;;;;;;40.53;17.95;;;;;;;4.60;44.50;101560.91;5074958;28;20072;-71
2022/03/03 11:17:46;;;;;;;34.85;16.38;;;;;;;4.66;44.59;101556.03;5074037;28;20041;-71
2022/03/03 11:20:17;;;;;;;42.53;18.83;;;;;;;4.61;44.20;101557.28;5064642;28;20041;-70
2022/03/03 11:22:44;;;;;;;43.53;17.40;;;;;;;4.45;44.74;101553.00;5073905;28;20079;-71
2022/03/03 11:25:16;;;;;;;39.72;16.45;;;;;;;4.38;44.90;101546.34;5074294;28;20041;-71